Danica Hav — C6ML9 — position and weather

sailwx.info

Track history (hours):
 
Tides and Currents Weather Stations Pressure Air Temp Water Temp Dewpoint Dewpoint Depression Visibility Wind Speed Wind Dir Waves Ship Positions

Danica Hav

Last reported at 2017-Oct-18 02:08 UTC. Time now 2017-Oct-18 09:46 UTC.
Position N 53°31' E 004°53'.

Length 82 m; draft 4.1 m.

Type: Cargo ship. MMSI: 308924000.

Date/timePositionNaut miles runAvg speedWind from/ knotsBaromVisibWave heightAir tempDewpointWater temp
2017-Oct-18 02:08N 53°31' E 004°53'2 7.5
2017-Oct-18 01:53N 53°32' E 004°56'123 6.2
2017-Oct-17 05:51N 54°00' E 008°19'2 6.9
2017-Oct-17 05:30N 53°60' E 008°23'4 7.8
2017-Oct-17 05:00N 53°59' E 008°29'5 9.3
2017-Oct-17 04:30N 53°58' E 008°37'611.2
2017-Oct-17 03:57N 53°53' E 008°43'511.4
2017-Oct-17 03:30N 53°50' E 008°51'612.0
2017-Oct-17 03:00N 53°52' E 009°01'510.2
2017-Oct-17 02:30N 53°54' E 009°09'0 0.1
2017-Oct-17 02:01N 53°54' E 009°09'3 6.5
2017-Oct-17 01:31N 53°56' E 009°13'4 8.6
2017-Oct-17 00:59N 53°59' E 009°17'3 5.9
2017-Oct-17 00:30N 54°02' E 009°18'1 2.6
2017-Oct-17 00:00N 54°04' E 009°19'4 8.4
2017-Oct-16 23:30N 54°08' E 009°20'4 8.2
2017-Oct-16 23:00N 54°10' E 009°26'4 8.5
2017-Oct-16 22:30N 54°12' E 009°32'0 1.0
2017-Oct-16 22:00N 54°12' E 009°33'2 4.6
2017-Oct-16 21:30N 54°13' E 009°36'4 7.9
2017-Oct-16 21:00N 54°17' E 009°38'4 7.5
2017-Oct-16 20:30N 54°20' E 009°43'34 6.6
2017-Oct-16 15:20N 54°34' E 010°36'3 8.2
2017-Oct-16 14:59N 54°35' E 010°41'8 8.1
2017-Oct-16 14:00N 54°35' E 010°54'4 8.2
2017-Oct-16 13:30N 54°36' E 011°01'4 8.7
2017-Oct-16 13:00N 54°36' E 011°09'4 8.6
2017-Oct-16 12:30N 54°34' E 011°16'4 8.1
2017-Oct-16 12:00N 54°33' E 011°22'4 8.1
2017-Oct-16 11:30N 54°32' E 011°29'4 8.4
2017-Oct-16 11:01N 54°30' E 011°36'4 8.5
2017-Oct-16 10:30N 54°29' E 011°43'4 8.7
2017-Oct-16 10:00N 54°28' E 011°50'4 8.7
2017-Oct-16 09:30N 54°27' E 011°57'6 8.0
2017-Oct-16 08:47N 54°27' E 012°07'2 7.7
2017-Oct-16 08:30N 54°28' E 012°10'4 8.6
2017-Oct-16 08:00N 54°33' E 012°12'4 8.0
2017-Oct-16 07:30N 54°36' E 012°15'8 8.3
2017-Oct-16 06:35N 54°41' E 012°26'1 8.3
2017-Oct-16 06:29N 54°41' E 012°27'5 8.6
2017-Oct-16 05:54N 54°44' E 012°34'5 8.7
2017-Oct-16 05:23N 54°47' E 012°41'4 8.4
2017-Oct-16 04:57N 54°48' E 012°46'11 8.4
2017-Oct-16 03:39N 54°52' E 013°04'1 8.4
2017-Oct-16 03:29N 54°52' E 013°06'4 8.3
2017-Oct-16 02:57N 54°54' E 013°14'29 8.1
2017-Oct-15 23:21N 55°04' E 014°01'4 7.9
2017-Oct-15 22:48N 55°07' E 014°06'3 8.3
2017-Oct-15 22:27N 55°10' E 014°08'4 8.6
2017-Oct-15 22:00N 55°12' E 014°14'4 8.6
2017-Oct-15 21:30N 55°15' E 014°19'5 8.5
2017-Oct-15 20:57N 55°18' E 014°25'5 8.5
2017-Oct-15 20:26N 55°22' E 014°30'4 8.5
2017-Oct-15 20:00N 55°24' E 014°34'9 8.8
2017-Oct-15 18:56N 55°30' E 014°48'5 8.6
2017-Oct-15 18:20N 55°32' E 014°56'5 8.6
2017-Oct-15 17:43N 55°35' E 015°04'4 8.6
2017-Oct-15 17:17N 55°37' E 015°09'3 8.8
2017-Oct-15 16:56N 55°39' E 015°14'4 8.6
2017-Oct-15 16:30N 55°40' E 015°20'4 8.3
2017-Oct-15 16:00N 55°43' E 015°26'4 8.4
2017-Oct-15 15:30N 55°45' E 015°32'4 8.6
2017-Oct-15 15:00N 55°47' E 015°39'9 8.8
2017-Oct-15 14:00N 55°52' E 015°52'4 8.9
2017-Oct-15 13:30N 55°54' E 015°59'4 8.9
2017-Oct-15 13:00N 55°56' E 016°06'4 8.8
2017-Oct-15 12:30N 55°59' E 016°12'4 8.6
2017-Oct-15 12:00N 56°01' E 016°19'4 8.8
2017-Oct-15 11:30N 56°03' E 016°26'5 9.1
2017-Oct-15 11:00N 56°05' E 016°33'5 8.8
2017-Oct-15 10:29N 56°08' E 016°40'  
2017-Oct-09 04:43N 55°09' E 012°43'2 9.6
2017-Oct-09 04:30N 55°10' E 012°41'5 9.5
2017-Oct-09 04:00N 55°15' E 012°38'5 9.1
2017-Oct-09 03:30N 55°19' E 012°38'5 9.2
2017-Oct-09 03:00N 55°24' E 012°40'5 9.1
2017-Oct-09 02:31N 55°28' E 012°41'5 9.7
2017-Oct-09 02:01N 55°33' E 012°42'510.5
2017-Oct-09 01:31N 55°38' E 012°42'510.3
2017-Oct-09 01:01N 55°44' E 012°41'5 9.6
2017-Oct-09 00:31N 55°48' E 012°40'5 9.7
2017-Oct-09 00:01N 55°53' E 012°38'5 9.9
2017-Oct-08 23:31N 55°58' E 012°38'5 9.5
2017-Oct-08 23:01N 56°03' E 012°39'510.8
2017-Oct-08 22:31N 56°06' E 012°31'510.1
2017-Oct-08 22:00N 56°09' E 012°24'  
Track history (hours):
 
Tides and Currents Weather Stations Pressure Air Temp Water Temp Dewpoint Dewpoint Depression Visibility Wind Speed Wind Dir Waves Ship Positions

Danica Hav

Last reported at 2017-Oct-18 02:08 UTC. Time now 2017-Oct-18 09:46 UTC.
Position N 53°31' E 004°53'.

Length 82 m; draft 4.1 m.

Type: Cargo ship. MMSI: 308924000.

Date/timePositionNaut miles runAvg speedWind from/ knotsBaromVisibWave heightAir tempDewpointWater temp
2017-Oct-18 02:08N 53°31' E 004°53'2 7.5
2017-Oct-18 01:53N 53°32' E 004°56'123 6.2
2017-Oct-17 05:51N 54°00' E 008°19'2 6.9
2017-Oct-17 05:30N 53°60' E 008°23'4 7.8
2017-Oct-17 05:00N 53°59' E 008°29'5 9.3
2017-Oct-17 04:30N 53°58' E 008°37'611.2
2017-Oct-17 03:57N 53°53' E 008°43'511.4
2017-Oct-17 03:30N 53°50' E 008°51'612.0
2017-Oct-17 03:00N 53°52' E 009°01'510.2
2017-Oct-17 02:30N 53°54' E 009°09'0 0.1
2017-Oct-17 02:01N 53°54' E 009°09'3 6.5
2017-Oct-17 01:31N 53°56' E 009°13'4 8.6
2017-Oct-17 00:59N 53°59' E 009°17'3 5.9
2017-Oct-17 00:30N 54°02' E 009°18'1 2.6
2017-Oct-17 00:00N 54°04' E 009°19'4 8.4
2017-Oct-16 23:30N 54°08' E 009°20'4 8.2
2017-Oct-16 23:00N 54°10' E 009°26'4 8.5
2017-Oct-16 22:30N 54°12' E 009°32'0 1.0
2017-Oct-16 22:00N 54°12' E 009°33'2 4.6
2017-Oct-16 21:30N 54°13' E 009°36'4 7.9
2017-Oct-16 21:00N 54°17' E 009°38'4 7.5
2017-Oct-16 20:30N 54°20' E 009°43'34 6.6
2017-Oct-16 15:20N 54°34' E 010°36'3 8.2
2017-Oct-16 14:59N 54°35' E 010°41'8 8.1
2017-Oct-16 14:00N 54°35' E 010°54'4 8.2
2017-Oct-16 13:30N 54°36' E 011°01'4 8.7
2017-Oct-16 13:00N 54°36' E 011°09'4 8.6
2017-Oct-16 12:30N 54°34' E 011°16'4 8.1
2017-Oct-16 12:00N 54°33' E 011°22'4 8.1
2017-Oct-16 11:30N 54°32' E 011°29'4 8.4
2017-Oct-16 11:01N 54°30' E 011°36'4 8.5
2017-Oct-16 10:30N 54°29' E 011°43'4 8.7
2017-Oct-16 10:00N 54°28' E 011°50'4 8.7
2017-Oct-16 09:30N 54°27' E 011°57'6 8.0
2017-Oct-16 08:47N 54°27' E 012°07'2 7.7
2017-Oct-16 08:30N 54°28' E 012°10'4 8.6
2017-Oct-16 08:00N 54°33' E 012°12'4 8.0
2017-Oct-16 07:30N 54°36' E 012°15'8 8.3
2017-Oct-16 06:35N 54°41' E 012°26'1 8.3
2017-Oct-16 06:29N 54°41' E 012°27'5 8.6
2017-Oct-16 05:54N 54°44' E 012°34'5 8.7
2017-Oct-16 05:23N 54°47' E 012°41'4 8.4
2017-Oct-16 04:57N 54°48' E 012°46'11 8.4
2017-Oct-16 03:39N 54°52' E 013°04'1 8.4
2017-Oct-16 03:29N 54°52' E 013°06'4 8.3
2017-Oct-16 02:57N 54°54' E 013°14'29 8.1
2017-Oct-15 23:21N 55°04' E 014°01'4 7.9
2017-Oct-15 22:48N 55°07' E 014°06'3 8.3
2017-Oct-15 22:27N 55°10' E 014°08'4 8.6
2017-Oct-15 22:00N 55°12' E 014°14'4 8.6
2017-Oct-15 21:30N 55°15' E 014°19'5 8.5
2017-Oct-15 20:57N 55°18' E 014°25'5 8.5
2017-Oct-15 20:26N 55°22' E 014°30'4 8.5
2017-Oct-15 20:00N 55°24' E 014°34'9 8.8
2017-Oct-15 18:56N 55°30' E 014°48'5 8.6
2017-Oct-15 18:20N 55°32' E 014°56'5 8.6
2017-Oct-15 17:43N 55°35' E 015°04'4 8.6
2017-Oct-15 17:17N 55°37' E 015°09'3 8.8
2017-Oct-15 16:56N 55°39' E 015°14'4 8.6
2017-Oct-15 16:30N 55°40' E 015°20'4 8.3
2017-Oct-15 16:00N 55°43' E 015°26'4 8.4
2017-Oct-15 15:30N 55°45' E 015°32'4 8.6
2017-Oct-15 15:00N 55°47' E 015°39'9 8.8
2017-Oct-15 14:00N 55°52' E 015°52'4 8.9
2017-Oct-15 13:30N 55°54' E 015°59'4 8.9
2017-Oct-15 13:00N 55°56' E 016°06'4 8.8
2017-Oct-15 12:30N 55°59' E 016°12'4 8.6
2017-Oct-15 12:00N 56°01' E 016°19'4 8.8
2017-Oct-15 11:30N 56°03' E 016°26'5 9.1
2017-Oct-15 11:00N 56°05' E 016°33'5 8.8
2017-Oct-15 10:29N 56°08' E 016°40'  
2017-Oct-09 04:43N 55°09' E 012°43'2 9.6
2017-Oct-09 04:30N 55°10' E 012°41'5 9.5
2017-Oct-09 04:00N 55°15' E 012°38'5 9.1
2017-Oct-09 03:30N 55°19' E 012°38'5 9.2
2017-Oct-09 03:00N 55°24' E 012°40'5 9.1
2017-Oct-09 02:31N 55°28' E 012°41'5 9.7
2017-Oct-09 02:01N 55°33' E 012°42'510.5
2017-Oct-09 01:31N 55°38' E 012°42'510.3
2017-Oct-09 01:01N 55°44' E 012°41'5 9.6
2017-Oct-09 00:31N 55°48' E 012°40'5 9.7
2017-Oct-09 00:01N 55°53' E 012°38'5 9.9
2017-Oct-08 23:31N 55°58' E 012°38'5 9.5
2017-Oct-08 23:01N 56°03' E 012°39'510.8
2017-Oct-08 22:31N 56°06' E 012°31'510.1
2017-Oct-08 22:00N 56°09' E 012°24'  

Dump ship's entire track history